Aeroporto :
LOGIN :

Iscrizione | Disclaimer

   EN    FR    IT 

 










Sommario :    VFR   VFR Marginale   IFR   IFR Intensivo   IFR Molto Intensivo
Visibilità : 
Base nubi : 
>= 8 km
>= 3000ft
5 / 8 km
1000 / 3000 ft
1500m / 5 km
500 / 1000 ft
800 / 1500m
200 / 500 ft
< 800m
< 200 ft
Simboli :   Temporali  Nebbia  Neve Forte  Precipitazioni Forti  Vento > 20 kt
SIGMETs :   Varie  Temporali  Ghiacco  Turbolenza  Onda orograficha  Ceneri Vulcaniche






- Altitudine del aeroporto : 1325 ft
- Codice IATA : EBU


LFMH - St-Etienne Boutheon

ULTIMO METAR :
  • 171930Z AUTO 16007KT CAVOK 11/10 Q1016 NOSIG

METARs OBSOLETI :
  • 171900Z AUTO 16006KT CAVOK 12/11 Q1016 NOSIG
  • 171830Z AUTO 15004KT CAVOK 14/12 Q1016 NOSIG
  • 171800Z AUTO 13006KT 9999 ///TCU 14/12 Q1016 BECMG NSC
  • 171730Z AUTO 13006KT CAVOK 15/13 Q1016 NOSIG
  • 171700Z AUTO 17009KT 130V190 CAVOK 15/13 Q1015 NOSIG

TAF TAF LFMH
Valido dal 17 a 15 ore il 18 a 15 ore UTC


171400Z 1715/1815 18010KT CAVOK
TEMPO 1810/1815 -RA BKN040
ATIS : +33 4 77 36 17 51



MetMap, La meteo Aeronautica in un colpo d'occhio ! - Copyright ORBIFLY Dicembre 2007 - Disclaimer

ORBIFLY MET'MAP TEAM :

Programmazione e sviluppo : Alexandra Zaïnal
Concezione e sviluppo : Baudouin d'Aumeries
Co-Programmazione e sviluppo : Marc-Olivier Méhu
Supporto tecnico e logistico : Manuel Goepfert
Aiuto per la traduzione : Arnaldo La Scala

Contatto : metmap@orbifly.com




FONTI E CREDITI :

   NOAA